Weather History for KMQI - November, 2013

Change the Weather History Date:

Sunday, November 24, 2013

  Actual Average Record
Temperature  
Mean Temperature 40 °F -  
Max Temperature 47 °F 58 °F 75 °F (1979)
Min Temperature 31 °F 45 °F 25 °F (1976)
Degree Days  
Heating Degree Days 26    
Moisture  
Dew Point 14 °F    
Average Humidity 43    
Maximum Humidity 67    
Minimum Humidity 31    
Precipitation  
Precipitation 0.00 in - - ()
Sea Level Pressure  
Sea Level Pressure 30.34 in    
Wind  
Wind Speed 16 mph (North)    
Max Wind Speed 24 mph    
Max Gust Speed 39 mph    
Visibility 10 miles    
Events      
Averages and records for this station are not official NWS values.
T = Trace of Precipitation, MM = Missing Value Source: NWS Daily Summary

Daily Weather History Graph

Daily Weather History Graph

Search for Another Location

Airport or City:

Trip Planner

Search our weather history database for the weather conditions in past years. The results will help you decide how hot, cold, wet, or windy it might be!

Date:

Astronomy

Nov. 24, 2013 Rise Set
Actual Time 6:48 AM EST 4:50 PM EST
Civil Twilight 6:20 AM EST 5:18 PM EST
Nautical Twilight 5:49 AM EST 5:49 PM EST
Astronomical Twilight 5:18 AM EST 6:20 PM EST
Moon 11:08 PM EST (11/24) 11:40 AM EST (11/24)
Length of Visible Light 10h 57m
Length of Day
10h 02m
Waning Gibbous, 61% of the Moon is Illuminated
Nov 24
Waning Gibbous
Nov 25
Last Quarter
Dec 2
New
Dec 9
First Quarter
Dec 17
Full

Hourly Weather History & Observations

Time (EST) Temp. Windchill Dew Point Humidity Pressure Visibility Wind Dir Wind Speed Gust Speed Precip Events Conditions
12:15 AM 48.2 °F - 37.8 °F 67% 30.06 in 10.0 mi NNE 11.5 mph 19.6 mph N/A   Mostly Cloudy
12:35 AM 48.2 °F - 36.9 °F 65% 30.06 in 10.0 mi North 12.7 mph 18.4 mph N/A   Mostly Cloudy
12:55 AM 47.8 °F - 33.8 °F 58% 30.07 in 10.0 mi NNE 17.3 mph 21.9 mph N/A   Overcast
1:15 AM 46.9 °F - 32.0 °F 56% 30.08 in 10.0 mi North 16.1 mph 23.0 mph N/A   Mostly Cloudy
1:35 AM 45.7 °F 38.3 °F 27.5 °F 49% 30.09 in 10.0 mi North 18.4 mph 26.5 mph N/A   Scattered Clouds
1:55 AM 45.0 °F 36.9 °F 23.9 °F 44% 30.11 in 10.0 mi North 20.7 mph 28.8 mph N/A   Scattered Clouds
2:15 AM 45.0 °F 37.1 °F 26.2 °F 48% 30.12 in 10.0 mi North 19.6 mph 25.3 mph N/A   Overcast
2:35 AM 44.6 °F 37.8 °F 26.4 °F 49% 30.12 in 10.0 mi North 15.0 mph 23.0 mph N/A   Overcast
2:55 AM 43.7 °F 36.3 °F 26.1 °F 50% 30.13 in 10.0 mi North 16.1 mph 26.5 mph N/A   Overcast
3:15 AM 42.8 °F 35.1 °F 26.2 °F 52% 30.13 in 10.0 mi NNE 16.1 mph 26.5 mph N/A   Overcast
3:35 AM 41.9 °F 33.1 °F 28.0 °F 58% 30.14 in 10.0 mi North 19.6 mph 26.5 mph N/A   Scattered Clouds
3:55 AM 40.8 °F 32.0 °F 26.1 °F 56% 30.15 in 10.0 mi North 18.4 mph 27.6 mph N/A   Clear
4:15 AM 39.7 °F 30.3 °F 27.1 °F 61% 30.16 in 10.0 mi NNE 19.6 mph 28.8 mph N/A   Clear
4:35 AM 39.2 °F 29.3 °F 27.1 °F 62% 30.17 in 10.0 mi NNE 20.7 mph 28.8 mph N/A   Scattered Clouds
4:55 AM 37.6 °F 26.3 °F 25.3 °F 61% 30.19 in 10.0 mi NNE 24.2 mph 32.2 mph N/A   Scattered Clouds
5:15 AM 37.4 °F 27.2 °F 25.7 °F 63% 30.20 in 10.0 mi North 19.6 mph 29.9 mph N/A   Scattered Clouds
5:35 AM 36.7 °F 26.3 °F 24.6 °F 62% 30.22 in 10.0 mi North 19.6 mph 28.8 mph N/A   Scattered Clouds
5:55 AM 36.5 °F 25.4 °F 25.0 °F 63% 30.23 in 10.0 mi North 21.9 mph 31.1 mph N/A   Mostly Cloudy
6:15 AM 35.2 °F 24.7 °F 22.1 °F 59% 30.25 in 10.0 mi North 18.4 mph 29.9 mph N/A   Mostly Cloudy
6:35 AM 34.5 °F 23.1 °F 20.3 °F 56% 30.27 in 10.0 mi North 20.7 mph 28.8 mph N/A   Scattered Clouds
6:55 AM 33.4 °F 22.7 °F 18.7 °F 55% 30.28 in 10.0 mi North 17.3 mph 27.6 mph N/A   Clear
7:15 AM 33.1 °F 21.9 °F 15.8 °F 49% 30.29 in 10.0 mi North 18.4 mph 31.1 mph N/A   Clear
7:35 AM 32.9 °F 22.0 °F 15.1 °F 48% 30.30 in 10.0 mi North 17.3 mph 29.9 mph N/A   Clear
7:55 AM 32.9 °F 22.8 °F 14.9 °F 48% 30.31 in 10.0 mi North 15.0 mph 28.8 mph N/A   Clear
8:15 AM 33.1 °F 23.0 °F 14.4 °F 46% 30.33 in 10.0 mi NNW 15.0 mph 27.6 mph N/A   Clear
8:35 AM 33.1 °F 21.2 °F 14.2 °F 46% 30.34 in 10.0 mi North 20.7 mph 27.6 mph N/A   Clear
8:55 AM 33.3 °F 22.1 °F 10.9 °F 40% 30.35 in 10.0 mi North 18.4 mph 28.8 mph N/A   Clear
9:15 AM 32.9 °F 20.4 °F 10.0 °F 39% 30.36 in 10.0 mi North 23.0 mph 34.5 mph N/A   Clear
9:35 AM 33.1 °F 21.5 °F 7.9 °F 35% 30.37 in 10.0 mi NNW 19.6 mph 32.2 mph N/A   Clear
9:55 AM 33.3 °F 22.5 °F 7.0 °F 33% 30.38 in 10.0 mi North 17.3 mph 28.8 mph N/A   Clear
10:15 AM 33.8 °F 22.2 °F 7.9 °F 34% 30.38 in 10.0 mi NNW 20.7 mph 28.8 mph N/A   Clear
10:35 AM 34.0 °F 21.5 °F 8.6 °F 35% 30.38 in 10.0 mi North 24.2 mph 33.4 mph N/A   Clear
10:55 AM 33.8 °F 22.2 °F 7.0 °F 33% 30.38 in 10.0 mi North 20.7 mph 31.1 mph N/A   Clear
11:15 AM 34.0 °F 23.0 °F 7.3 °F 33% 30.38 in 10.0 mi North 18.4 mph 34.5 mph N/A   Clear
11:35 AM 34.5 °F 22.5 °F 8.2 °F 33% 30.38 in 10.0 mi North 23.0 mph 39.1 mph N/A   Clear
11:55 AM 34.9 °F 25.7 °F 9.0 °F 34% 30.39 in 10.0 mi North 13.8 mph 28.8 mph N/A   Clear
12:15 PM 34.9 °F 23.6 °F 7.7 °F 32% 30.38 in 10.0 mi North 20.7 mph 27.6 mph N/A   Clear
12:35 PM 35.4 °F 25.6 °F 10.6 °F 36% 30.37 in 10.0 mi North 16.1 mph 27.6 mph N/A   Clear
12:55 PM 35.1 °F 25.2 °F 9.0 °F 34% 30.38 in 10.0 mi North 16.1 mph 29.9 mph N/A   Clear
1:15 PM 35.4 °F 26.4 °F 9.3 °F 34% 30.37 in 10.0 mi North 13.8 mph 20.7 mph N/A   Clear
1:35 PM 35.6 °F 27.1 °F 8.1 °F 32% 30.36 in 10.0 mi North 12.7 mph 23.0 mph N/A   Clear
1:55 PM 35.8 °F 25.4 °F 8.6 °F 32% 30.36 in 10.0 mi NNE 18.4 mph 26.5 mph N/A   Clear
2:15 PM 35.4 °F 26.4 °F 8.2 °F 32% 30.36 in 10.0 mi North 13.8 mph 24.2 mph N/A   Clear
2:35 PM 35.1 °F 25.5 °F 8.2 °F 33% 30.37 in 10.0 mi North 15.0 mph 23.0 mph N/A   Clear
2:55 PM 35.1 °F 26.4 °F 7.7 °F 32% 30.38 in 10.0 mi NNW 12.7 mph 23.0 mph N/A   Clear
3:15 PM 34.9 °F 25.3 °F 6.8 °F 31% 30.38 in 10.0 mi North 15.0 mph 23.0 mph N/A   Clear
3:35 PM 34.7 °F 26.4 °F 7.9 °F 33% 30.39 in 10.0 mi North 11.5 mph 24.2 mph N/A   Clear
3:55 PM 34.2 °F 23.3 °F 8.2 °F 34% 30.39 in 10.0 mi North 18.4 mph 23.0 mph N/A   Clear
4:15 PM 34.0 °F 23.4 °F 6.6 °F 32% 30.39 in 10.0 mi North 17.3 mph 20.7 mph N/A   Clear
4:35 PM 33.3 °F 22.8 °F 5.9 °F 32% 30.41 in 10.0 mi North 16.1 mph 23.0 mph N/A   Clear
4:55 PM 32.7 °F 22.5 °F 5.5 °F 32% 30.41 in 10.0 mi North 15.0 mph 21.9 mph N/A   Clear
5:15 PM 32.4 °F 24.6 °F 5.4 °F 32% 30.42 in 10.0 mi North 9.2 mph 24.2 mph N/A   Clear
5:35 PM 32.2 °F 23.2 °F 5.5 °F 33% 30.43 in 10.0 mi North 11.5 mph 20.7 mph N/A   Clear
5:55 PM 32.2 °F 22.7 °F 4.6 °F 31% 30.44 in 10.0 mi NNW 12.7 mph 24.2 mph N/A   Clear
6:15 PM 32.4 °F 24.0 °F 6.1 °F 33% 30.45 in 10.0 mi North 10.4 mph 21.9 mph N/A   Clear
6:35 PM 32.4 °F 23.0 °F 6.1 °F 33% 30.46 in 10.0 mi North 12.7 mph 19.6 mph N/A   Clear
6:55 PM 32.4 °F 22.5 °F 5.5 °F 32% 30.47 in 10.0 mi North 13.8 mph 19.6 mph N/A   Clear
7:15 PM 32.0 °F 23.6 °F 5.9 °F 33% 30.48 in 10.0 mi NNW 10.4 mph 19.6 mph N/A   Clear
7:35 PM 32.2 °F 22.7 °F 5.9 °F 33% 30.48 in 10.0 mi North 12.7 mph 24.2 mph N/A   Clear
7:55 PM 32.2 °F 21.8 °F 7.5 °F 36% 30.49 in 10.0 mi North 15.0 mph 21.9 mph N/A   Clear
8:15 PM 32.0 °F 22.1 °F 7.5 °F 36% 30.48 in 10.0 mi North 13.8 mph 20.7 mph N/A   Clear
8:35 PM 32.2 °F 22.3 °F 8.4 °F 37% 30.49 in 10.0 mi North 13.8 mph 21.9 mph N/A   Clear
8:55 PM 32.0 °F 23.6 °F 8.8 °F 38% 30.49 in 10.0 mi North 10.4 mph 21.9 mph N/A   Clear
9:15 PM 32.0 °F 21.6 °F 9.0 °F 38% 30.49 in 10.0 mi North 15.0 mph 24.2 mph N/A   Clear
9:35 PM 32.0 °F 20.8 °F 10.6 °F 41% 30.50 in 10.0 mi North 17.3 mph 26.5 mph N/A   Clear
9:55 PM 32.0 °F 21.6 °F 11.1 °F 42% 30.50 in 10.0 mi North 15.0 mph 21.9 mph N/A   Clear
10:15 PM 31.8 °F 22.8 °F 11.5 °F 43% 30.51 in 10.0 mi North 11.5 mph 16.1 mph N/A   Clear
10:35 PM 31.8 °F 22.8 °F 11.3 °F 43% 30.51 in 10.0 mi NNW 11.5 mph 18.4 mph N/A   Clear
10:55 PM 31.6 °F 21.6 °F 12.4 °F 45% 30.50 in 10.0 mi North 13.8 mph 21.9 mph N/A   Clear
11:15 PM 31.6 °F 21.2 °F 12.6 °F 45% 30.50 in 10.0 mi North 15.0 mph 21.9 mph N/A   Clear
11:35 PM 31.5 °F 20.5 °F 12.6 °F 46% 30.49 in 10.0 mi North 16.1 mph 24.2 mph N/A   Clear
11:55 PM 31.3 °F 20.7 °F 12.7 °F 46% 30.49 in 10.0 mi North 15.0 mph 23.0 mph N/A   Clear